createdAt,value
2023-05-12T00:01:29.982Z,10.41
2023-05-12T00:03:58.427Z,10.36
2023-05-12T00:06:27.129Z,10.33
2023-05-12T00:08:55.309Z,10.37
2023-05-12T00:11:25.387Z,10.41
2023-05-12T00:13:53.825Z,10.38
2023-05-12T00:16:22.120Z,10.32
2023-05-12T00:18:50.447Z,10.16
2023-05-12T00:21:18.869Z,10.06
2023-05-12T00:23:47.438Z,9.98
2023-05-12T00:26:16.256Z,10.01
2023-05-12T00:28:47.687Z,9.98
2023-05-12T00:31:16.337Z,9.88
2023-05-12T00:33:44.722Z,9.88
2023-05-12T00:36:13.354Z,9.85
2023-05-12T00:38:41.485Z,9.76
2023-05-12T00:41:10.297Z,9.74
2023-05-12T00:43:38.536Z,9.75
2023-05-12T00:46:09.845Z,9.74
2023-05-12T00:48:38.747Z,9.70
2023-05-12T00:51:07.935Z,9.53
2023-05-12T00:53:48.156Z,9.41
2023-05-12T00:56:19.844Z,9.39
2023-05-12T00:58:48.519Z,9.41
2023-05-12T01:01:19.386Z,9.43
2023-05-12T01:03:51.613Z,9.42
2023-05-12T01:06:29.005Z,9.51
2023-05-12T01:09:00.746Z,9.50
2023-05-12T01:11:28.730Z,9.42
2023-05-12T01:13:57.044Z,9.33
2023-05-12T01:16:32.017Z,9.30
2023-05-12T01:19:03.955Z,9.24
2023-05-12T01:21:32.718Z,9.20
2023-05-12T01:24:04.088Z,9.28
2023-05-12T01:26:33.923Z,9.16
2023-05-12T01:29:06.299Z,9.04
2023-05-12T01:31:36.192Z,8.91
2023-05-12T01:34:04.579Z,8.86
2023-05-12T01:36:32.758Z,8.80
2023-05-12T01:39:00.827Z,8.78
2023-05-12T01:41:29.410Z,8.83
2023-05-12T01:43:59.008Z,8.86
2023-05-12T01:46:27.853Z,8.82
2023-05-12T01:48:59.814Z,8.79
2023-05-12T01:51:28.745Z,8.78
2023-05-12T01:53:58.625Z,8.78
2023-05-12T01:56:30.264Z,8.80
2023-05-12T01:58:59.905Z,8.89
2023-05-12T02:01:29.230Z,8.94
2023-05-12T02:03:59.193Z,9.09
2023-05-12T02:06:28.648Z,9.28
2023-05-12T02:08:58.241Z,9.35
2023-05-12T02:11:26.678Z,9.34
2023-05-12T02:13:55.216Z,9.36
2023-05-12T02:16:25.001Z,9.39
2023-05-12T02:18:53.597Z,9.29
2023-05-12T02:21:21.675Z,9.27
2023-05-12T02:23:52.188Z,9.23
2023-05-12T02:26:21.398Z,9.17
2023-05-12T02:28:49.913Z,9.07
2023-05-12T02:31:18.191Z,9.02
2023-05-12T02:33:47.755Z,9.04
2023-05-12T02:36:16.146Z,8.98
2023-05-12T02:38:44.767Z,8.85
2023-05-12T02:41:13.263Z,8.92
2023-05-12T02:43:41.427Z,9.03
2023-05-12T02:46:09.421Z,9.06
2023-05-12T02:48:40.173Z,9.11
2023-05-12T02:51:10.027Z,9.03
2023-05-12T02:53:38.308Z,9.02
2023-05-12T02:56:07.780Z,9.01
2023-05-12T02:58:36.671Z,8.96
2023-05-12T03:01:10.930Z,8.93
2023-05-12T03:03:40.934Z,8.80
2023-05-12T03:06:11.333Z,8.77
2023-05-12T03:08:39.328Z,8.81
2023-05-12T03:11:07.490Z,8.63
2023-05-12T03:13:36.060Z,8.68
2023-05-12T03:16:05.215Z,8.78
2023-05-12T03:18:33.635Z,8.54
2023-05-12T03:21:02.180Z,8.35
2023-05-12T03:23:31.995Z,8.37
2023-05-12T03:26:00.267Z,8.40
2023-05-12T03:28:29.637Z,8.53
2023-05-12T03:30:57.738Z,8.52
2023-05-12T03:33:26.446Z,8.52
2023-05-12T03:35:54.927Z,8.58
2023-05-12T03:38:24.850Z,8.59
2023-05-12T03:41:04.800Z,8.58
2023-05-12T03:43:33.502Z,8.56
2023-05-12T03:46:02.242Z,8.70
2023-05-12T03:48:32.963Z,8.84
2023-05-12T03:51:01.646Z,8.94
2023-05-12T03:53:29.928Z,8.99
2023-05-12T03:56:05.726Z,9.02
2023-05-12T03:58:34.464Z,8.98
2023-05-12T04:01:02.850Z,9.06
2023-05-12T04:03:31.509Z,9.10
2023-05-12T04:06:01.241Z,9.11
2023-05-12T04:08:29.959Z,9.10
2023-05-12T04:11:01.220Z,9.30
2023-05-12T04:13:31.277Z,9.35
2023-05-12T04:16:00.427Z,9.54
2023-05-12T04:18:29.628Z,9.56
2023-05-12T04:20:58.141Z,9.55
2023-05-12T04:23:26.964Z,9.58
2023-05-12T04:25:56.861Z,9.46
2023-05-12T04:28:26.496Z,9.63
2023-05-12T04:30:54.532Z,9.80
2023-05-12T04:33:24.949Z,9.84
2023-05-12T04:35:57.180Z,10.09
2023-05-12T04:38:25.786Z,10.22
2023-05-12T04:40:59.267Z,10.31
2023-05-12T04:46:01.763Z,10.25
2023-05-12T04:48:30.384Z,10.39
2023-05-12T04:51:02.778Z,10.47
2023-05-12T04:53:34.707Z,10.18
2023-05-12T04:56:04.087Z,10.33
2023-05-12T04:58:38.733Z,10.18
2023-05-12T05:01:07.844Z,10.11
2023-05-12T05:03:36.314Z,10.06
2023-05-12T05:06:05.681Z,9.96
2023-05-12T05:08:34.341Z,9.59
2023-05-12T05:11:02.872Z,9.61
2023-05-12T05:13:32.735Z,9.75
2023-05-12T05:16:02.935Z,10.03
2023-05-12T05:18:32.433Z,10.25
2023-05-12T05:21:01.190Z,10.43
2023-05-12T05:23:29.901Z,10.71
2023-05-12T05:25:58.189Z,10.73
2023-05-12T05:28:26.837Z,10.63
2023-05-12T05:30:55.679Z,10.81
2023-05-12T05:33:26.355Z,10.95
2023-05-12T05:35:54.790Z,10.88
2023-05-12T05:38:23.440Z,11.10
2023-05-12T05:40:54.184Z,11.24
2023-05-12T05:43:24.390Z,11.43
2023-05-12T05:45:53.403Z,11.47
2023-05-12T05:48:23.574Z,11.42
2023-05-12T05:50:54.105Z,11.59
2023-05-12T05:53:25.176Z,11.84
2023-05-12T05:55:54.200Z,11.37
2023-05-12T05:58:22.616Z,11.63
2023-05-12T06:00:51.272Z,11.80
2023-05-12T06:03:19.965Z,11.77
2023-05-12T06:05:49.475Z,11.84
2023-05-12T06:08:18.943Z,12.13
2023-05-12T06:10:47.411Z,12.29
2023-05-12T06:13:15.911Z,12.37
2023-05-12T06:15:43.941Z,12.54
2023-05-12T06:18:13.630Z,12.67
2023-05-12T06:20:42.872Z,12.84
2023-05-12T06:23:11.339Z,12.85
2023-05-12T06:25:42.036Z,12.78
2023-05-12T06:28:10.168Z,13.00
2023-05-12T06:30:38.709Z,12.79
2023-05-12T06:33:06.913Z,13.12
2023-05-12T06:35:35.572Z,13.30
2023-05-12T06:38:07.634Z,13.42
2023-05-12T06:40:36.117Z,13.57
2023-05-12T06:43:05.925Z,13.83
2023-05-12T06:45:38.224Z,14.30
2023-05-12T06:48:09.528Z,14.87
2023-05-12T06:50:37.978Z,15.28
2023-05-12T06:53:06.686Z,17.83
2023-05-12T06:55:34.866Z,18.09
2023-05-12T06:58:04.538Z,16.98
2023-05-12T07:00:34.333Z,16.74
2023-05-12T07:03:05.065Z,17.53
2023-05-12T07:05:33.203Z,17.14
2023-05-12T07:08:01.376Z,18.23
2023-05-12T07:10:29.786Z,19.69
2023-05-12T07:12:58.369Z,19.16
2023-05-12T07:15:29.232Z,20.49
2023-05-12T07:18:00.440Z,20.82
2023-05-12T07:20:28.725Z,20.32
2023-05-12T07:22:57.033Z,19.35
2023-05-12T07:25:25.780Z,19.68
2023-05-12T07:27:54.238Z,20.33
2023-05-12T07:30:23.194Z,18.42
2023-05-12T07:32:51.512Z,18.52
2023-05-12T07:35:22.451Z,18.78
2023-05-12T07:37:51.214Z,17.24
2023-05-12T07:40:20.054Z,17.20
2023-05-12T07:42:48.302Z,18.78
2023-05-12T07:45:23.004Z,19.67
2023-05-12T07:47:52.513Z,20.00
2023-05-12T07:50:22.822Z,19.48
2023-05-12T07:52:53.255Z,18.94
2023-05-12T07:55:23.273Z,17.99
2023-05-12T07:57:51.903Z,17.01
2023-05-12T08:00:20.842Z,18.05
2023-05-12T08:02:49.324Z,17.81
2023-05-12T08:05:17.852Z,18.81
2023-05-12T08:07:47.676Z,18.90
2023-05-12T08:10:16.042Z,19.27
2023-05-12T08:12:44.256Z,18.68
2023-05-12T08:15:12.581Z,19.91
2023-05-12T08:17:42.072Z,19.86
2023-05-12T08:20:11.380Z,20.08
2023-05-12T08:22:40.278Z,20.78
2023-05-12T08:25:12.711Z,21.81
2023-05-12T08:27:41.744Z,21.79
2023-05-12T08:30:11.188Z,20.97
2023-05-12T08:32:39.974Z,21.41
2023-05-12T08:35:08.747Z,20.87
2023-05-12T08:37:37.155Z,20.28
2023-05-12T08:40:22.697Z,20.82
2023-05-12T08:43:03.702Z,20.66
2023-05-12T08:45:31.796Z,18.64
2023-05-12T08:48:01.070Z,19.40
2023-05-12T08:50:32.105Z,19.69
2023-05-12T08:53:01.105Z,19.43
2023-05-12T08:55:33.676Z,21.39
2023-05-12T08:58:04.426Z,20.42
2023-05-12T09:00:34.559Z,19.35
2023-05-12T09:03:07.363Z,19.67
2023-05-12T09:05:36.759Z,18.45
2023-05-12T09:08:06.437Z,18.97
2023-05-12T09:10:37.121Z,19.55
2023-05-12T09:13:12.739Z,19.59
2023-05-12T09:15:46.908Z,19.95
2023-05-12T09:18:15.207Z,19.46
2023-05-12T09:20:44.244Z,18.69
2023-05-12T09:23:20.007Z,19.34
2023-05-12T09:26:00.963Z,19.39
2023-05-12T09:28:37.020Z,19.32
2023-05-12T09:31:17.833Z,18.91
2023-05-12T09:33:46.515Z,18.93
2023-05-12T09:36:19.604Z,19.20
2023-05-12T09:38:48.368Z,19.09
2023-05-12T09:41:24.186Z,19.10
2023-05-12T09:43:54.648Z,19.41
2023-05-12T09:46:23.088Z,21.51
2023-05-12T09:48:52.100Z,22.01
2023-05-12T09:51:20.528Z,24.29
2023-05-12T09:53:49.076Z,25.70
2023-05-12T09:56:19.724Z,25.24
2023-05-12T09:58:49.772Z,25.21
2023-05-12T10:01:23.896Z,23.85
2023-05-12T10:03:54.963Z,23.55
2023-05-12T10:06:28.374Z,24.88
2023-05-12T10:09:17.487Z,24.54
2023-05-12T10:11:49.220Z,25.75
2023-05-12T10:14:19.520Z,24.62
2023-05-12T10:16:48.403Z,23.06
2023-05-12T10:19:17.088Z,22.06
2023-05-12T10:21:46.335Z,20.47
2023-05-12T10:24:16.350Z,19.76
2023-05-12T10:26:46.778Z,19.08
2023-05-12T10:29:15.785Z,19.34
2023-05-12T10:31:47.151Z,19.77
2023-05-12T10:34:18.671Z,20.18
2023-05-12T10:36:51.192Z,19.87
2023-05-12T10:39:20.132Z,20.00
2023-05-12T10:41:51.138Z,19.87
2023-05-12T10:44:28.744Z,19.68
2023-05-12T10:47:00.703Z,19.27
2023-05-12T10:49:37.621Z,19.47
2023-05-12T10:52:07.512Z,19.97
2023-05-12T10:54:40.993Z,19.99
2023-05-12T10:57:18.239Z,20.47
2023-05-12T10:59:51.998Z,21.22
2023-05-12T11:02:26.550Z,21.30
2023-05-12T11:05:00.779Z,21.71
2023-05-12T11:07:32.960Z,21.94
2023-05-12T11:10:04.730Z,22.76
2023-05-12T11:12:37.418Z,21.90
2023-05-12T11:15:10.225Z,21.38
2023-05-12T11:17:41.301Z,19.59
2023-05-12T11:20:11.156Z,19.49
2023-05-12T11:22:44.085Z,19.80
2023-05-12T11:25:13.532Z,19.71
2023-05-12T11:27:48.448Z,19.42
2023-05-12T11:30:17.454Z,18.52
2023-05-12T11:32:46.162Z,18.08
2023-05-12T11:35:16.697Z,18.27
2023-05-12T11:37:46.679Z,18.25
2023-05-12T11:40:20.358Z,18.84
2023-05-12T11:42:54.113Z,19.50
2023-05-12T11:45:24.924Z,20.36
2023-05-12T11:47:54.799Z,19.68
2023-05-12T11:50:25.961Z,19.01
2023-05-12T11:52:54.775Z,18.89
2023-05-12T11:55:24.982Z,18.84
2023-05-12T11:58:00.039Z,19.58
2023-05-12T12:00:30.852Z,20.14
2023-05-12T12:03:15.049Z,20.16
2023-05-12T12:06:01.118Z,20.20
2023-05-12T12:08:29.918Z,20.30
2023-05-12T12:11:01.943Z,20.09
2023-05-12T12:13:33.253Z,20.01
2023-05-12T12:16:02.165Z,19.97
2023-05-12T12:18:30.491Z,19.88
2023-05-12T12:20:58.720Z,19.87
2023-05-12T12:23:27.056Z,19.83
2023-05-12T12:25:55.260Z,19.50
2023-05-12T12:28:23.453Z,19.25
2023-05-12T12:30:53.327Z,19.03
2023-05-12T12:33:22.161Z,19.45
2023-05-12T12:35:51.368Z,19.52
2023-05-12T12:38:19.654Z,19.62
2023-05-12T12:40:48.223Z,19.68
2023-05-12T12:43:17.111Z,19.79
2023-05-12T12:45:45.779Z,19.87
2023-05-12T12:48:15.691Z,20.07
2023-05-12T12:50:43.952Z,20.62
2023-05-12T12:53:13.647Z,20.43
2023-05-12T12:55:41.870Z,21.56
2023-05-12T12:58:09.783Z,22.07
2023-05-12T13:00:38.440Z,21.83
2023-05-12T13:03:32.972Z,21.63
2023-05-12T13:06:01.576Z,21.48
2023-05-12T13:08:29.613Z,22.39
2023-05-12T13:10:58.227Z,23.38
2023-05-12T13:13:26.317Z,22.98
2023-05-12T13:15:54.679Z,22.65
2023-05-12T13:18:23.005Z,21.00
2023-05-12T13:20:54.337Z,22.30
2023-05-12T13:23:22.585Z,22.10
2023-05-12T13:25:52.551Z,22.02
2023-05-12T13:28:20.574Z,22.69
2023-05-12T13:30:48.884Z,22.49
2023-05-12T13:33:17.272Z,22.65
2023-05-12T13:35:46.001Z,21.93
2023-05-12T13:38:15.528Z,22.42
2023-05-12T13:40:43.838Z,23.37
2023-05-12T13:43:12.613Z,23.88
2023-05-12T13:45:40.658Z,23.90
2023-05-12T13:48:11.221Z,23.43
2023-05-12T13:50:39.496Z,23.32
2023-05-12T13:53:07.815Z,22.66
2023-05-12T13:55:40.828Z,22.28
2023-05-12T13:58:09.026Z,22.49
2023-05-12T14:00:37.480Z,21.56
2023-05-12T14:03:06.110Z,20.79
2023-05-12T14:05:34.394Z,20.43
2023-05-12T14:08:02.753Z,20.01
2023-05-12T14:10:32.536Z,19.91
2023-05-12T14:13:02.334Z,19.65
2023-05-12T14:15:44.784Z,19.49
2023-05-12T14:18:16.940Z,19.42
2023-05-12T14:20:45.619Z,19.72
2023-05-12T14:23:14.155Z,19.54
2023-05-12T14:25:42.228Z,19.38
2023-05-12T14:28:12.535Z,19.28
2023-05-12T14:30:41.217Z,19.20
2023-05-12T14:33:09.529Z,19.01
2023-05-12T14:35:38.048Z,19.00
2023-05-12T14:38:06.729Z,18.85
2023-05-12T14:40:34.945Z,18.63
2023-05-12T14:43:03.610Z,18.58
2023-05-12T14:45:33.183Z,17.89
2023-05-12T14:48:01.502Z,17.80
2023-05-12T14:50:30.050Z,17.89
2023-05-12T14:52:58.142Z,17.91
2023-05-12T14:55:26.726Z,17.77
2023-05-12T14:57:55.066Z,17.98
2023-05-12T15:00:23.937Z,18.09
2023-05-12T15:02:56.365Z,18.24
2023-05-12T15:05:36.098Z,18.53
2023-05-12T15:08:14.118Z,18.59
2023-05-12T15:10:42.522Z,18.72
2023-05-12T15:13:11.432Z,18.66
2023-05-12T15:15:40.927Z,18.69
2023-05-12T15:18:10.619Z,18.50
2023-05-12T15:20:39.440Z,18.49
2023-05-12T15:23:07.884Z,18.36
2023-05-12T15:25:39.260Z,17.97
2023-05-12T15:28:07.629Z,17.13
2023-05-12T15:30:36.211Z,16.41
2023-05-12T15:33:06.211Z,16.57
2023-05-12T15:35:36.155Z,16.66
2023-05-12T15:38:05.126Z,16.63
2023-05-12T15:40:33.254Z,16.57
2023-05-12T15:43:01.332Z,16.75
2023-05-12T15:45:29.615Z,16.75
2023-05-12T15:47:59.141Z,16.72
2023-05-12T15:50:27.136Z,16.60
2023-05-12T15:52:57.174Z,16.57
2023-05-12T15:55:25.164Z,16.50
2023-05-12T15:57:53.752Z,15.96
2023-05-12T16:00:22.814Z,15.84
2023-05-12T16:02:51.544Z,15.61
2023-05-12T16:05:19.959Z,15.55
2023-05-12T16:07:49.672Z,15.56
2023-05-12T16:10:19.895Z,15.57
2023-05-12T16:12:48.740Z,15.30
2023-05-12T16:15:16.897Z,15.44
2023-05-12T16:17:45.161Z,15.27
2023-05-12T16:20:15.279Z,15.21
2023-05-12T16:22:43.613Z,15.36
2023-05-12T16:25:11.738Z,15.31
2023-05-12T16:27:41.829Z,15.28
2023-05-12T16:30:13.379Z,15.27
2023-05-12T16:32:41.768Z,15.33
2023-05-12T16:35:11.220Z,15.29
2023-05-12T16:37:40.240Z,15.42
2023-05-12T16:40:09.774Z,15.55
2023-05-12T16:42:38.315Z,15.69
2023-05-12T16:45:11.094Z,15.82
2023-05-12T16:47:40.598Z,16.01
2023-05-12T16:50:10.533Z,16.27
2023-05-12T16:52:38.857Z,16.32
2023-05-12T16:55:08.239Z,16.22
2023-05-12T16:57:37.007Z,16.24
2023-05-12T17:00:09.627Z,16.19
2023-05-12T17:02:39.018Z,16.21
2023-05-12T17:05:08.252Z,16.22
2023-05-12T17:07:36.422Z,16.28
2023-05-12T17:10:05.243Z,16.23
2023-05-12T17:12:33.587Z,16.21
2023-05-12T17:15:07.645Z,16.10
2023-05-12T17:17:38.354Z,16.14
2023-05-12T17:20:07.926Z,16.17
2023-05-12T17:22:41.466Z,16.21
2023-05-12T17:25:10.409Z,16.14
2023-05-12T17:27:38.535Z,16.04
2023-05-12T17:30:08.714Z,16.14
2023-05-12T17:32:38.342Z,16.22
2023-05-12T17:35:08.431Z,16.35
2023-05-12T17:37:37.222Z,16.33
2023-05-12T17:40:07.233Z,16.18
2023-05-12T17:42:35.699Z,16.20
2023-05-12T17:45:05.566Z,16.11
2023-05-12T17:47:34.663Z,15.95
2023-05-12T17:50:04.999Z,15.74
2023-05-12T17:52:33.509Z,15.52
2023-05-12T17:55:01.695Z,15.49
2023-05-12T17:57:30.040Z,15.31
2023-05-12T17:59:58.475Z,15.15
2023-05-12T18:02:27.149Z,14.89
2023-05-12T18:04:56.340Z,14.79
2023-05-12T18:07:26.598Z,14.61
2023-05-12T18:09:55.062Z,14.43
2023-05-12T18:12:23.448Z,14.32
2023-05-12T18:14:51.750Z,14.17
2023-05-12T18:17:21.585Z,14.07
2023-05-12T18:19:49.775Z,14.03
2023-05-12T18:22:18.420Z,13.87
2023-05-12T18:24:48.059Z,13.73
2023-05-12T18:27:16.395Z,13.69
2023-05-12T18:29:44.637Z,13.52
2023-05-12T18:32:12.998Z,13.38
2023-05-12T18:34:44.111Z,13.26
2023-05-12T18:37:15.651Z,13.17
2023-05-12T18:39:44.577Z,12.85
2023-05-12T18:42:13.943Z,12.34
2023-05-12T18:44:42.802Z,12.21
2023-05-12T18:47:11.386Z,11.96
2023-05-12T18:49:39.537Z,12.01
2023-05-12T18:52:11.061Z,12.01
2023-05-12T18:54:41.283Z,12.06
2023-05-12T18:57:10.195Z,12.14
2023-05-12T18:59:39.627Z,12.19
2023-05-12T19:02:09.243Z,12.20
2023-05-12T19:04:39.108Z,12.19
2023-05-12T19:07:09.958Z,12.20
2023-05-12T19:09:38.515Z,12.04
2023-05-12T19:12:10.877Z,11.98
2023-05-12T19:14:43.194Z,11.86
2023-05-12T19:17:11.732Z,11.84
2023-05-12T19:19:39.930Z,11.91
2023-05-12T19:22:07.977Z,11.89
2023-05-12T19:24:38.090Z,11.83
2023-05-12T19:27:06.828Z,11.65
2023-05-12T19:29:35.149Z,11.54
2023-05-12T19:32:05.403Z,11.44
2023-05-12T19:34:33.650Z,11.39
2023-05-12T19:37:04.707Z,11.38
2023-05-12T19:44:04.429Z,11.07
2023-05-12T19:46:34.823Z,11.12
2023-05-12T19:49:06.292Z,11.16
2023-05-12T19:51:34.340Z,11.18
2023-05-12T19:54:05.250Z,11.23
2023-05-12T19:56:33.997Z,11.27
2023-05-12T19:59:02.161Z,11.26
2023-05-12T20:01:30.989Z,11.24
2023-05-12T20:03:59.345Z,11.22
2023-05-12T20:06:29.016Z,11.43
2023-05-12T20:08:57.444Z,11.36
2023-05-12T20:11:25.860Z,11.26
2023-05-12T20:13:54.089Z,11.10
2023-05-12T20:16:22.317Z,10.83
2023-05-12T20:18:50.755Z,10.94
2023-05-12T20:21:19.826Z,11.03
2023-05-12T20:23:49.251Z,11.09
2023-05-12T20:26:17.443Z,11.21
2023-05-12T20:28:45.901Z,11.27
2023-05-12T20:31:14.171Z,11.27
2023-05-12T20:33:42.930Z,11.30
2023-05-12T20:36:11.220Z,11.22
2023-05-12T20:38:39.895Z,11.28
2023-05-12T20:41:10.315Z,11.28
2023-05-12T20:43:38.754Z,11.24
2023-05-12T20:46:07.383Z,11.11
2023-05-12T20:48:35.651Z,10.89
2023-05-12T20:51:11.684Z,10.68
2023-05-12T20:53:40.081Z,10.48
2023-05-12T20:56:10.663Z,10.35
2023-05-12T20:58:39.103Z,10.16
2023-05-12T21:01:07.699Z,10.10
2023-05-12T21:03:36.046Z,10.06
2023-05-12T21:06:06.221Z,9.96
2023-05-12T21:08:34.503Z,9.85
2023-05-12T21:11:03.084Z,9.78
2023-05-12T21:13:32.747Z,9.50
2023-05-12T21:16:00.752Z,9.49
2023-05-12T21:18:29.373Z,9.45
2023-05-12T21:20:57.527Z,9.44
2023-05-12T21:23:26.066Z,9.43
2023-05-12T21:25:54.207Z,9.35
2023-05-12T21:28:22.508Z,9.37
2023-05-12T21:30:52.708Z,9.34
2023-05-12T21:33:20.922Z,9.24
2023-05-12T21:35:50.188Z,9.40
2023-05-12T21:38:18.570Z,9.39
2023-05-12T21:40:50.777Z,9.44
2023-05-12T21:43:19.250Z,9.41
2023-05-12T21:45:47.323Z,9.42
2023-05-12T21:48:17.695Z,9.49
2023-05-12T21:50:46.375Z,9.57
2023-05-12T21:53:14.555Z,9.65
2023-05-12T21:55:43.023Z,9.72
2023-05-12T21:58:11.565Z,9.71
2023-05-12T22:00:39.617Z,9.66
2023-05-12T22:03:08.721Z,9.59
2023-05-12T22:05:38.869Z,9.57
2023-05-12T22:08:07.175Z,9.49
2023-05-12T22:10:35.543Z,9.51
2023-05-12T22:13:03.730Z,9.42
2023-05-12T22:15:32.213Z,9.35
2023-05-12T22:18:00.883Z,9.35
2023-05-12T22:20:29.070Z,9.33
2023-05-12T22:22:59.444Z,9.24
2023-05-12T22:25:27.836Z,9.23
2023-05-12T22:27:56.041Z,9.33
2023-05-12T22:30:24.432Z,9.18
2023-05-12T22:32:52.815Z,9.22
2023-05-12T22:35:21.364Z,9.24
2023-05-12T22:37:50.830Z,9.21
2023-05-12T22:40:22.233Z,9.20
2023-05-12T22:42:50.304Z,9.27
2023-05-12T22:45:18.366Z,9.17
2023-05-12T22:47:46.752Z,9.11
2023-05-12T22:50:14.844Z,8.89
2023-05-12T22:52:43.495Z,8.67
2023-05-12T22:55:11.807Z,8.31
2023-05-12T22:57:44.004Z,8.04
2023-05-12T23:00:13.139Z,8.05
2023-05-12T23:02:41.329Z,8.17
2023-05-12T23:05:10.590Z,8.42
2023-05-12T23:07:38.977Z,8.31
2023-05-12T23:10:09.380Z,8.30
2023-05-12T23:12:37.620Z,8.24
2023-05-12T23:15:10.084Z,8.23
2023-05-12T23:17:38.386Z,8.12
2023-05-12T23:20:08.070Z,7.95
2023-05-12T23:22:36.052Z,7.90
2023-05-12T23:25:04.344Z,7.78
2023-05-12T23:27:32.921Z,7.69
2023-05-12T23:30:01.435Z,7.63
2023-05-12T23:32:31.291Z,7.64
2023-05-12T23:34:59.590Z,7.55
2023-05-12T23:37:27.807Z,7.48
2023-05-12T23:39:55.996Z,7.38
2023-05-12T23:42:24.055Z,7.27
2023-05-12T23:44:52.546Z,7.22
2023-05-12T23:47:21.119Z,7.25
2023-05-12T23:49:50.971Z,7.35
2023-05-12T23:52:19.217Z,7.30
2023-05-12T23:54:47.643Z,7.23
2023-05-12T23:57:15.760Z,7.17
2023-05-12T23:59:43.722Z,7.20
